Time;durP1;ratioP1;P1;durP2;ratioP2;P2;SDS_P1;SDS_P2;PMS_P1;PMS_P2;Temp;Humidity;BMP_temperature;BMP_pressure;BME280_temperature;BME280_humidity;BME280_pressure;Samples;Min_cycle;Max_cycle;Signal;HPM_P1;HPM_P2
2022/08/20 00:01:46;;;;;;;29.98;24.37;;;;;;;25.70;73.01;100214.48;5202843;56;1139142;-64
2022/08/20 00:06:52;;;;;;;29.23;26.23;;;;;;;25.64;73.22;100217.28;5241939;56;1143215;-62
2022/08/20 00:11:59;;;;;;;31.95;24.45;;;;;;;25.54;73.47;100219.09;5241885;56;1143192;-66
2022/08/20 00:17:06;;;;;;;35.30;26.87;;;;;;;25.62;74.31;100229.69;5187010;56;1143285;-65
2022/08/20 00:22:12;;;;;;;29.60;24.70;;;;;;;25.75;74.35;100219.23;5209034;56;1143211;-65
2022/08/20 00:27:19;;;;;;;30.40;25.72;;;;;;;25.87;74.38;100217.42;5241748;56;1143197;-65
2022/08/20 00:32:25;;;;;;;31.35;23.98;;;;;;;25.95;74.15;100225.27;5241722;56;1143188;-65
2022/08/20 00:37:31;;;;;;;29.10;24.05;;;;;;;25.95;73.71;100225.79;5230950;56;1143324;-63
2022/08/20 00:42:52;;;;;;;31.27;23.92;;;;;;;25.89;73.32;100229.69;5155124;57;1142987;-65
2022/08/20 00:47:58;;;;;;;;;;;;;;;25.64;73.32;100243.84;5158888;57;1143096;-65
2022/08/20 00:53:07;;;;;;;27.75;24.95;;;;;;;25.27;74.57;100239.36;5157687;57;976495;-65
2022/08/20 00:58:12;;;;;;;28.12;25.05;;;;;;;24.96;75.27;100234.30;5155121;57;1141137;-63
2022/08/20 01:03:20;;;;;;;30.48;24.40;;;;;;;24.90;75.98;100230.55;5168532;56;1143609;-62
2022/08/20 01:08:26;;;;;;;29.87;23.83;;;;;;;25.06;76.46;100224.32;5128150;56;1143575;-65
2022/08/20 01:13:35;;;;;;;28.73;25.65;;;;;;;25.15;76.49;100225.72;4997584;58;1143327;-63
2022/08/20 01:18:40;;;;;;;31.05;25.17;;;;;;;25.30;76.66;100235.69;5072299;57;1143189;-65
2022/08/20 01:24:18;;;;;;;30.60;26.10;;;;;;;25.35;76.24;100241.80;5072546;57;1143261;-65
2022/08/20 01:29:28;;;;;;;31.93;24.75;;;;;;;25.28;76.09;100249.97;5067915;58;1143175;-64
2022/08/20 01:34:34;;;;;;;25.85;23.18;;;;;;;25.22;76.26;100243.55;4993832;58;1143531;-64
2022/08/20 01:39:40;;;;;;;30.45;24.72;;;;;;;25.16;76.14;100251.73;5023036;58;1143400;-65
2022/08/20 01:44:48;;;;;;;27.85;24.85;;;;;;;24.90;76.22;100245.42;4991190;58;1143211;-64
2022/08/20 01:50:00;;;;;;;29.95;26.20;;;;;;;24.76;77.10;100243.86;4987046;59;1143457;-64
2022/08/20 01:55:07;;;;;;;27.25;24.32;;;;;;;24.65;78.05;100247.27;4991074;58;1143198;-65
2022/08/20 02:00:15;;;;;;;27.50;24.70;;;;;;;24.65;78.05;100247.27;5006151;58;1143218;-64
2022/08/20 02:05:22;;;;;;;28.55;24.07;;;;;;;24.59;78.52;100252.73;5151206;57;1143391;-67
2022/08/20 02:10:30;;;;;;;31.93;22.73;;;;;;;24.45;79.25;100243.84;5190666;56;1141463;-68
2022/08/20 02:15:37;;;;;;;26.70;23.50;;;;;;;24.38;79.33;100233.59;5190745;57;1141417;-67
2022/08/20 02:20:44;;;;;;;32.13;23.90;;;;;;;24.35;79.83;100236.72;5168107;57;1141460;-66
2022/08/20 02:25:50;;;;;;;26.75;23.98;;;;;;;24.24;80.36;100228.78;5190875;57;1141140;-66
2022/08/20 02:30:56;;;;;;;26.35;23.67;;;;;;;24.23;80.95;100235.71;5190960;57;1141249;-66
2022/08/20 02:36:03;;;;;;;32.90;25.85;;;;;;;24.26;81.60;100228.05;5222452;56;1141330;-67
2022/08/20 02:41:09;;;;;;;26.75;23.95;;;;;;;24.28;81.23;100222.43;5123080;57;1141412;-66
2022/08/20 02:46:17;;;;;;;26.62;23.83;;;;;;;24.36;81.24;100219.46;5136768;57;1141369;-66
2022/08/20 02:51:24;;;;;;;29.10;25.30;;;;;;;24.40;81.17;100213.94;5136627;57;1141538;-65
2022/08/20 02:56:29;;;;;;;29.32;24.80;;;;;;;24.28;81.19;100203.51;5136908;57;1141374;-65
2022/08/20 03:01:36;;;;;;;28.35;25.40;;;;;;;24.25;81.31;100202.58;5180958;56;1141432;-66
2022/08/20 03:06:42;;;;;;;25.52;22.85;;;;;;;24.18;81.24;100197.99;5222348;56;1141389;-64
2022/08/20 03:11:48;;;;;;;27.58;24.67;;;;;;;24.17;81.81;100192.28;5222380;56;1141358;-64
2022/08/20 03:16:54;;;;;;;28.55;25.57;;;;;;;24.07;82.02;100193.80;5222342;56;1141236;-63
2022/08/20 03:22:00;;;;;;;29.40;23.67;;;;;;;23.89;82.56;100193.13;5222394;56;1141400;-63
2022/08/20 03:27:07;;;;;;;26.70;23.67;;;;;;;23.80;83.17;100181.75;5222420;56;1141368;-64
2022/08/20 03:32:13;;;;;;;27.70;25.00;;;;;;;23.71;83.63;100188.93;5222303;56;1141151;-65
2022/08/20 03:37:18;;;;;;;27.55;24.85;;;;;;;23.71;83.77;100186.23;5214889;56;1139046;-64
2022/08/20 03:42:24;;;;;;;34.18;25.20;;;;;;;23.71;83.68;100193.81;5136266;57;1139054;-63
2022/08/20 03:47:30;;;;;;;29.23;26.02;;;;;;;23.77;83.80;100207.00;5136607;57;1143190;-63
2022/08/20 03:52:37;;;;;;;28.37;25.47;;;;;;;23.76;83.79;100206.69;5136402;57;1143204;-65
2022/08/20 03:57:53;;;;;;;28.90;25.30;;;;;;;23.80;83.95;100200.66;5136611;57;1143109;-63
2022/08/20 04:02:59;;;;;;;28.25;25.23;;;;;;;23.86;83.87;100200.31;5208188;56;1143192;-65
2022/08/20 04:08:07;;;;;;;29.67;25.50;;;;;;;23.94;84.03;100196.03;5252221;56;1143172;-63
2022/08/20 04:13:13;;;;;;;27.42;24.47;;;;;;;24.02;83.82;100201.70;5252019;56;1143196;-63
2022/08/20 04:18:21;;;;;;;29.40;22.87;;;;;;;24.04;83.23;100200.45;5252125;56;1143155;-63
2022/08/20 04:23:28;;;;;;;31.27;24.63;;;;;;;23.88;83.27;100201.45;5252127;56;1143164;-67
2022/08/20 04:28:34;;;;;;;29.50;25.20;;;;;;;23.65;83.86;100191.98;5252150;56;1143310;-65
2022/08/20 04:33:41;;;;;;;29.55;25.17;;;;;;;23.62;84.33;100202.36;5252032;56;1143336;-65
2022/08/20 04:38:47;;;;;;;40.17;27.65;;;;;;;23.80;85.28;100198.48;5219220;56;1143212;-64
2022/08/20 04:43:55;;;;;;;29.40;25.80;;;;;;;23.81;84.39;100182.58;5165225;57;1143219;-64
2022/08/20 04:49:02;;;;;;;30.20;25.57;;;;;;;23.68;84.62;100175.33;5165286;57;1143258;-65
2022/08/20 04:54:10;;;;;;;26.23;23.60;;;;;;;23.62;85.02;100176.72;5165113;57;1143318;-66
2022/08/20 04:59:16;;;;;;;31.40;26.70;;;;;;;23.60;85.60;100182.33;5224536;55;1143211;-64
2022/08/20 05:04:21;;;;;;;31.75;25.08;;;;;;;23.57;86.24;100193.54;5157195;57;1143179;-64
2022/08/20 05:09:27;;;;;;;27.87;24.98;;;;;;;23.73;86.55;100201.70;5131610;57;1143222;-64
2022/08/20 05:14:33;;;;;;;27.00;23.45;;;;;;;23.73;86.55;100201.70;5206166;56;1143178;-66
2022/08/20 05:19:40;;;;;;;32.15;25.72;;;;;;;23.75;86.74;100196.41;5217372;56;1143132;-64
2022/08/20 05:24:45;;;;;;;23.80;20.77;;;;;;;23.70;87.13;100200.77;5217235;56;1143235;-64
2022/08/20 05:29:52;;;;;;;31.68;26.40;;;;;;;23.63;88.01;100207.55;5217286;56;1143201;-63
2022/08/20 05:34:58;;;;;;;32.00;26.95;;;;;;;23.54;88.62;100197.17;5217198;56;1143389;-63
2022/08/20 05:40:09;;;;;;;34.33;26.90;;;;;;;23.55;89.15;100205.59;5192911;55;1142518;-64
2022/08/20 05:45:16;;;;;;;;;;;;;;;23.57;89.50;100208.91;5148919;55;1143217;-67
2022/08/20 05:50:21;;;;;;;37.15;29.80;;;;;;;23.59;89.68;100213.58;5173799;55;976358;-64
2022/08/20 05:55:28;;;;;;;31.23;26.95;;;;;;;23.61;89.81;100216.38;5112088;56;1141119;-64
2022/08/20 06:00:36;;;;;;;37.42;29.10;;;;;;;23.64;90.28;100220.02;5099281;57;1143246;-63
2022/08/20 06:05:42;;;;;;;31.48;25.62;;;;;;;23.73;90.16;100230.89;5059410;57;1143239;-64
2022/08/20 06:10:48;;;;;;;37.05;27.37;;;;;;;23.69;90.36;100235.05;5091818;57;1143213;-63
2022/08/20 06:15:56;;;;;;;41.95;28.90;;;;;;;23.72;90.54;100233.80;5252490;56;1143240;-66
2022/08/20 06:21:02;;;;;;;31.30;27.75;;;;;;;23.69;91.29;100245.84;5252550;56;1143525;-63
2022/08/20 06:26:08;;;;;;;31.82;26.30;;;;;;;23.69;91.29;100245.84;5252309;56;1143224;-64
2022/08/20 06:31:13;;;;;;;30.97;26.77;;;;;;;23.76;91.68;100237.74;5252348;56;1143289;-64
2022/08/20 06:36:21;;;;;;;31.97;26.05;;;;;;;23.78;91.39;100247.82;5252441;56;1143669;-65
2022/08/20 06:41:26;;;;;;;34.27;28.10;;;;;;;23.79;91.45;100270.56;5173325;56;1141101;-64
2022/08/20 06:46:33;;;;;;;33.48;28.80;;;;;;;23.77;91.69;100269.11;5165517;57;1141161;-64
2022/08/20 06:51:39;;;;;;;32.00;27.93;;;;;;;23.71;92.27;100276.17;5165445;57;1141083;-67
2022/08/20 06:56:45;;;;;;;37.95;29.35;;;;;;;23.65;92.44;100269.45;5165547;57;1141178;-66
2022/08/20 07:01:55;;;;;;;33.25;29.50;;;;;;;23.66;92.76;100275.16;5214719;56;1141174;-66
2022/08/20 07:06:58;;;;;;;30.82;26.52;;;;;;;23.66;92.99;100267.89;5240319;56;1141239;-66
2022/08/20 07:12:05;;;;;;;36.38;27.65;;;;;;;23.74;93.15;100266.83;5222265;56;1141171;-64
2022/08/20 07:17:12;;;;;;;30.95;24.37;;;;;;;23.82;93.11;100259.34;5195947;56;1141256;-66
2022/08/20 07:22:17;;;;;;;33.23;29.70;;;;;;;24.05;94.09;100257.50;5222280;56;1141123;-63
2022/08/20 07:27:24;;;;;;;28.52;24.27;;;;;;;24.25;93.63;100253.93;5222322;56;1141043;-66
2022/08/20 07:32:38;;;;;;;32.05;27.05;;;;;;;24.41;93.15;100254.80;5222262;56;1141279;-66
2022/08/20 07:37:48;;;;;;;33.33;25.70;;;;;;;24.46;92.32;100259.02;5207544;56;1141337;-63
2022/08/20 07:42:57;;;;;;;40.88;28.42;;;;;;;24.72;92.52;100258.89;5136434;57;1141106;-66
2022/08/20 07:48:09;;;;;;;31.40;27.60;;;;;;;24.91;91.50;100271.95;5136299;56;1141337;-63
2022/08/20 07:53:14;;;;;;;;;;;;;;;24.86;89.29;100259.62;5140082;57;1139068;-65
2022/08/20 07:58:23;;;;;;;32.38;26.30;;;;;;;24.83;89.64;100263.59;5148564;57;976513;-67
2022/08/20 08:03:30;;;;;;;30.80;26.07;;;;;;;24.90;89.06;100264.36;5208591;56;1141091;-63
2022/08/20 08:08:37;;;;;;;33.33;27.83;;;;;;;24.97;89.16;100268.42;5233721;56;1143107;-66
2022/08/20 08:13:43;;;;;;;28.10;25.08;;;;;;;24.88;88.48;100265.66;5242845;56;1143216;-66
2022/08/20 08:18:55;;;;;;;31.55;26.35;;;;;;;24.99;89.20;100267.69;5242810;56;1143139;-64
2022/08/20 08:24:01;;;;;;;27.73;24.80;;;;;;;25.17;88.95;100275.88;5218554;56;1143208;-68
2022/08/20 08:29:07;;;;;;;39.18;28.67;;;;;;;25.33;88.32;100281.27;5222046;56;1143182;-65
2022/08/20 08:34:13;;;;;;;27.80;24.65;;;;;;;25.35;86.82;100281.89;5222023;56;1143194;-64
2022/08/20 08:39:21;;;;;;;35.15;25.57;;;;;;;25.33;87.12;100273.67;5231986;56;1143183;-66
2022/08/20 08:44:31;;;;;;;27.70;24.00;;;;;;;25.28;86.07;100284.33;5242599;56;1143713;-67
2022/08/20 08:49:37;;;;;;;30.45;27.13;;;;;;;25.24;86.34;100287.47;5242794;56;1143643;-67
2022/08/20 08:54:50;;;;;;;29.30;23.73;;;;;;;25.24;85.56;100289.34;5242748;56;1143259;-65
2022/08/20 09:00:00;;;;;;;27.90;24.95;;;;;;;25.29;85.56;100298.17;5226725;56;1143249;-64
2022/08/20 09:05:16;;;;;;;33.45;25.50;;;;;;;25.27;85.55;100293.50;5156191;57;1143289;-65
2022/08/20 09:10:21;;;;;;;28.20;25.20;;;;;;;25.27;85.42;100281.31;5158719;56;1143327;-64
2022/08/20 09:15:27;;;;;;;28.12;24.87;;;;;;;25.41;85.80;100285.05;5242671;56;1143512;-63
2022/08/20 09:20:33;;;;;;;52.53;27.85;;;;;;;25.64;86.02;100283.64;5242576;56;1143276;-64
2022/08/20 09:25:39;;;;;;;29.67;24.55;;;;;;;26.02;86.19;100278.02;5242475;56;1143224;-64
2022/08/20 09:30:45;;;;;;;32.63;27.20;;;;;;;26.36;84.27;100282.03;5242722;56;1143198;-65
2022/08/20 09:35:51;;;;;;;28.20;22.50;;;;;;;26.64;82.89;100289.06;5242183;56;1143217;-63
2022/08/20 09:40:57;;;;;;;25.32;22.42;;;;;;;26.76;81.12;100289.09;5172264;56;1143193;-66
2022/08/20 09:46:02;;;;;;;21.93;19.70;;;;;;;26.51;79.09;100291.95;5156150;57;1143393;-66
2022/08/20 09:51:08;;;;;;;28.45;23.85;;;;;;;26.34;79.35;100297.17;5155967;57;1142996;-66
2022/08/20 09:56:14;;;;;;;32.35;24.35;;;;;;;26.14;78.83;100300.07;5155928;57;1143203;-64
2022/08/20 10:01:22;;;;;;;25.08;22.52;;;;;;;26.00;79.34;100290.44;5155939;57;1143208;-64
2022/08/20 10:06:28;;;;;;;26.33;22.95;;;;;;;26.01;79.43;100293.45;5155919;57;1143503;-63
2022/08/20 10:11:34;;;;;;;28.07;22.75;;;;;;;26.06;79.56;100288.19;5163571;56;1143198;-67
2022/08/20 10:16:40;;;;;;;28.32;22.98;;;;;;;26.10;78.97;100281.80;5221797;56;1143453;-68
2022/08/20 10:21:46;;;;;;;24.60;22.17;;;;;;;26.09;78.60;100286.39;5221611;56;1143430;-66
2022/08/20 10:26:58;;;;;;;28.35;25.05;;;;;;;26.15;78.27;100281.92;5221790;56;1143566;-66
2022/08/20 10:32:13;;;;;;;27.85;20.40;;;;;;;26.15;78.29;100275.98;5221517;56;1143190;-65
2022/08/20 10:37:22;;;;;;;27.00;23.60;;;;;;;26.24;78.14;100279.23;5214399;56;1141342;-66
2022/08/20 10:42:28;;;;;;;25.23;22.62;;;;;;;26.29;77.84;100276.67;5135752;57;1141133;-66
2022/08/20 10:47:34;;;;;;;28.67;22.82;;;;;;;26.31;77.60;100273.22;5135867;57;1141226;-63
2022/08/20 10:52:39;;;;;;;23.22;20.82;;;;;;;26.44;78.20;100270.86;5136256;57;1141350;-66
2022/08/20 10:57:47;;;;;;;23.18;20.77;;;;;;;26.64;77.69;100274.14;5136401;57;1141420;-64
2022/08/20 11:02:52;;;;;;;23.30;20.92;;;;;;;26.78;77.18;100267.99;5136431;57;1141613;-64
2022/08/20 11:07:58;;;;;;;28.85;22.55;;;;;;;26.89;76.92;100273.45;5132414;56;1141189;-64
2022/08/20 11:13:07;;;;;;;31.27;20.70;;;;;;;27.05;76.35;100261.13;5144534;56;1140964;-66
2022/08/20 11:18:13;;;;;;;24.18;21.68;;;;;;;27.11;75.86;100247.16;5173625;56;1141509;-66
2022/08/20 11:23:19;;;;;;;26.25;20.95;;;;;;;27.20;74.65;100249.29;5174523;56;1141183;-66
2022/08/20 11:28:25;;;;;;;29.65;21.57;;;;;;;27.23;74.30;100256.15;5169897;56;1141680;-64
2022/08/20 11:33:31;;;;;;;23.30;20.92;;;;;;;27.39;73.91;100252.74;5138387;56;1141611;-64
2022/08/20 11:38:37;;;;;;;22.65;20.45;;;;;;;27.54;73.22;100258.53;5184635;56;1141330;-65
2022/08/20 11:43:43;;;;;;;23.52;19.90;;;;;;;27.57;72.52;100257.27;5091356;57;1141159;-67
2022/08/20 11:48:49;;;;;;;26.55;21.05;;;;;;;27.69;73.10;100262.69;5098223;57;1141136;-64
2022/08/20 11:53:55;;;;;;;27.75;20.23;;;;;;;27.79;71.08;100269.73;5112435;57;1141091;-65
2022/08/20 11:59:01;;;;;;;22.35;19.75;;;;;;;27.79;71.08;100269.73;5099242;57;1139272;-64
2022/08/20 12:04:07;;;;;;;25.45;20.45;;;;;;;27.76;71.02;100269.67;5062237;57;1139553;-63
2022/08/20 12:09:12;;;;;;;21.33;17.98;;;;;;;27.70;70.32;100265.70;5053204;58;1143144;-67
2022/08/20 12:14:19;;;;;;;24.60;18.77;;;;;;;27.83;70.64;100260.02;5155459;57;1143206;-63
2022/08/20 12:19:25;;;;;;;21.13;18.93;;;;;;;27.84;68.93;100258.42;5156352;57;1143498;-65
2022/08/20 12:24:31;;;;;;;24.50;19.40;;;;;;;27.78;68.94;100244.45;5156448;57;1143196;-67
2022/08/20 12:29:39;;;;;;;19.75;17.65;;;;;;;27.79;69.87;100248.82;5156020;56;1143322;-68
2022/08/20 12:34:45;;;;;;;25.90;19.42;;;;;;;27.93;70.20;100233.08;5042380;57;1143377;-65
2022/08/20 12:39:55;;;;;;;19.95;17.82;;;;;;;27.94;68.89;100236.92;5113720;57;1143370;-66
2022/08/20 12:45:01;;;;;;;26.52;19.52;;;;;;;28.01;69.61;100225.36;5150935;57;1142730;-66
2022/08/20 12:50:11;;;;;;;20.82;18.85;;;;;;;28.12;68.35;100215.51;5046588;57;1143157;-66
2022/08/20 12:55:19;;;;;;;23.07;17.77;;;;;;;28.22;67.72;100223.09;4985218;58;1143226;-65
2022/08/20 13:00:30;;;;;;;26.23;19.98;;;;;;;28.19;67.85;100214.88;4989700;58;1143358;-66
2022/08/20 13:05:36;;;;;;;19.42;17.62;;;;;;;28.17;67.32;100220.23;5072424;58;1143424;-66
2022/08/20 13:10:44;;;;;;;25.65;18.30;;;;;;;28.14;67.97;100216.09;5119364;57;1143355;-64
2022/08/20 13:15:53;;;;;;;22.50;18.27;;;;;;;28.31;68.13;100216.20;5046861;58;1143202;-63
2022/08/20 13:20:58;;;;;;;21.65;18.92;;;;;;;28.42;67.57;100206.32;5251984;55;1143146;-64
2022/08/20 13:26:04;;;;;;;21.35;18.15;;;;;;;28.73;67.71;100210.42;5162573;57;1143182;-66
2022/08/20 13:31:10;;;;;;;29.30;16.90;;;;;;;28.89;67.88;100206.93;5067768;58;1143450;-64
2022/08/20 13:36:17;;;;;;;21.23;16.97;;;;;;;29.18;67.07;100211.78;5068034;58;1143222;-66
2022/08/20 13:41:23;;;;;;;19.57;17.65;;;;;;;29.04;64.24;100199.02;5151057;57;1143321;-67
2022/08/20 13:46:28;;;;;;;24.50;17.90;;;;;;;28.93;64.37;100203.48;5341724;55;1143144;-66
2022/08/20 13:51:34;;;;;;;20.20;18.07;;;;;;;28.93;65.57;100198.56;5251721;56;1143213;-66
2022/08/20 13:56:40;;;;;;;21.25;18.55;;;;;;;29.10;64.41;100184.41;5341538;55;1143133;-65
2022/08/20 14:01:45;;;;;;;19.17;15.75;;;;;;;29.09;63.30;100189.57;5163616;56;1143157;-65
2022/08/20 14:06:51;;;;;;;17.75;15.85;;;;;;;28.99;63.39;100194.86;5120141;57;1143148;-66
2022/08/20 14:11:57;;;;;;;22.73;17.20;;;;;;;28.66;64.61;100184.20;5110260;57;1143258;-66
2022/08/20 14:17:15;;;;;;;21.97;16.05;;;;;;;28.50;66.73;100174.12;5251767;56;1143443;-65
2022/08/20 14:22:21;;;;;;;20.08;17.07;;;;;;;28.50;66.73;100174.12;5202282;56;1143268;-67
2022/08/20 14:27:27;;;;;;;26.10;18.98;;;;;;;28.53;66.08;100179.62;5252160;56;1143284;-67
2022/08/20 14:32:33;;;;;;;19.65;17.55;;;;;;;28.32;66.16;100183.31;5252286;56;1143234;-63
2022/08/20 14:37:43;;;;;;;20.43;16.20;;;;;;;28.21;66.54;100175.21;5215245;55;1143132;-64
2022/08/20 14:42:49;;;;;;;18.80;16.60;;;;;;;28.11;66.88;100177.14;5098966;56;1143186;-67
2022/08/20 14:47:58;;;;;;;19.55;16.15;;;;;;;28.21;67.47;100186.09;5086375;57;1143242;-64
2022/08/20 14:53:04;;;;;;;15.78;14.13;;;;;;;28.31;66.99;100180.30;5163322;57;1141219;-67
2022/08/20 14:58:12;;;;;;;16.62;14.87;;;;;;;28.33;66.38;100179.53;5201920;55;1141197;-63
2022/08/20 15:03:19;;;;;;;17.73;14.90;;;;;;;28.25;66.32;100176.38;5115203;56;1141249;-66
2022/08/20 15:08:26;;;;;;;17.42;14.35;;;;;;;28.26;66.53;100174.75;5135284;56;1141099;-63
2022/08/20 15:13:31;;;;;;;24.60;15.08;;;;;;;28.23;65.92;100176.63;5203767;56;1141046;-65
2022/08/20 15:18:37;;;;;;;20.25;12.95;;;;;;;28.12;66.06;100167.92;5123845;56;1141099;-63
2022/08/20 15:23:43;;;;;;;20.27;13.65;;;;;;;28.08;66.16;100172.75;5101945;56;1141107;-64
2022/08/20 15:28:49;;;;;;;44.38;14.87;;;;;;;28.00;66.60;100167.97;5107733;56;1141120;-64
2022/08/20 15:33:54;;;;;;;15.88;13.50;;;;;;;27.97;66.42;100179.33;5146699;57;1141162;-66
2022/08/20 15:39:00;;;;;;;19.00;14.60;;;;;;;27.93;67.00;100184.98;5226430;56;1141169;-67
2022/08/20 15:44:06;;;;;;;20.85;14.45;;;;;;;27.79;67.04;100204.51;5204753;56;1141060;-64
2022/08/20 15:49:13;;;;;;;44.25;17.35;;;;;;;27.75;67.44;100227.25;5165368;57;1141387;-66
2022/08/20 15:54:23;;;;;;;24.32;15.48;;;;;;;27.78;68.80;100219.16;5165315;57;1141340;-66
2022/08/20 15:59:49;;;;;;;23.70;14.38;;;;;;;27.73;70.71;100213.60;5192482;56;1141137;-64
2022/08/20 16:05:21;;;;;;;20.88;17.40;;;;;;;27.20;72.55;100217.23;5084104;57;1139176;-65
2022/08/20 16:10:47;;;;;;;;;;;;;;;26.37;75.31;100217.25;5173263;56;1143532;-63
2022/08/20 16:15:55;;;;;;;18.42;14.00;;;;;;;25.68;78.85;100246.91;5229464;55;976368;-64
2022/08/20 16:21:07;;;;;;;16.65;13.95;;;;;;;25.11;84.97;100266.45;5140226;57;1141305;-65
2022/08/20 16:39:30;;;;;;;3.62;3.05;;;;;;;23.21;90.38;100245.27;5532540;53;46133;-63
2022/08/20 16:44:42;;;;;;;2.60;2.22;;;;;;;22.87;89.22;100227.92;5294124;55;1134867;-63
2022/08/20 16:50:14;;;;;;;9.03;3.77;;;;;;;22.69;88.04;100272.44;5245024;55;1138969;-64
2022/08/20 16:55:23;;;;;;;7.35;2.60;;;;;;;22.49;95.93;100334.88;5131216;56;1139007;-63
2022/08/20 17:00:37;;;;;;;8.18;3.35;;;;;;;22.61;90.80;100278.01;5170540;55;1138951;-65
2022/08/20 17:05:50;;;;;;;6.00;3.62;;;;;;;22.43;90.90;100261.08;5137534;55;1139157;-66
2022/08/20 17:11:08;;;;;;;4.75;3.55;;;;;;;22.34;90.49;100245.27;5205266;55;1139148;-63
2022/08/20 17:16:19;;;;;;;4.75;3.83;;;;;;;22.31;91.99;100292.30;5246062;55;1139220;-64
2022/08/20 17:21:30;;;;;;;7.63;5.17;;;;;;;22.27;92.24;100305.89;5274422;55;1139088;-63
2022/08/20 17:26:42;;;;;;;9.85;5.97;;;;;;;22.24;93.33;100294.16;5176146;55;1137043;-64
2022/08/20 17:31:54;;;;;;;7.47;6.67;;;;;;;22.23;96.35;100290.31;5130151;56;1136960;-63
2022/08/20 17:37:04;;;;;;;8.23;7.03;;;;;;;22.16;99.76;100297.52;5223670;55;1137025;-63
2022/08/20 17:42:15;;;;;;;8.98;6.05;;;;;;;22.12;99.96;100329.95;5201544;56;1137158;-65
2022/08/20 17:47:28;;;;;;;13.28;8.38;;;;;;;22.15;100.00;100365.92;5179552;56;1137160;-63
2022/08/20 17:52:53;;;;;;;11.65;8.30;;;;;;;22.21;100.00;100412.25;5199588;55;1141130;-64
2022/08/20 17:58:02;;;;;;;14.47;8.03;;;;;;;22.44;100.00;100416.87;5221199;55;1141945;-66
2022/08/20 18:03:25;;;;;;;19.87;8.93;;;;;;;22.65;100.00;100405.98;5201593;55;1141335;-64
2022/08/20 18:08:57;;;;;;;10.17;8.10;;;;;;;22.80;100.00;100381.08;5195423;55;1143479;-66
2022/08/20 18:14:39;;;;;;;14.18;9.08;;;;;;;23.02;100.00;100376.91;5089115;57;1143526;-65
2022/08/20 18:20:15;;;;;;;11.12;9.18;;;;;;;23.01;99.76;100364.45;5049647;57;1143432;-64
2022/08/20 18:25:38;;;;;;;14.55;10.78;;;;;;;22.81;100.00;100365.73;5147440;56;1141299;-66
2022/08/20 18:30:48;;;;;;;;;;;;;;;22.56;100.00;100344.36;5150887;56;1145744;-64
2022/08/20 18:36:07;;;;;;;12.05;10.85;;;;;;;22.49;100.00;100345.66;5196398;56;978427;-64
2022/08/20 18:41:38;;;;;;;10.30;9.30;;;;;;;22.49;100.00;100356.96;5195165;56;1143359;-64
2022/08/20 18:47:00;;;;;;;12.25;9.20;;;;;;;22.56;100.00;100365.92;5224559;55;1143377;-64
2022/08/20 18:52:24;;;;;;;10.53;8.93;;;;;;;22.44;100.00;100361.11;5137824;56;1141364;-64
2022/08/20 18:57:36;;;;;;;8.05;7.22;;;;;;;22.39;100.00;100366.26;5226726;55;1141204;-66
2022/08/20 19:03:15;;;;;;;10.17;7.40;;;;;;;22.45;100.00;100361.42;5108434;57;1139048;-66
2022/08/20 19:08:27;;;;;;;8.90;7.72;;;;;;;22.45;100.00;100378.11;5122515;57;1141235;-64
2022/08/20 19:13:52;;;;;;;8.45;7.37;;;;;;;22.37;100.00;100397.13;4981618;59;1137071;-64
2022/08/20 19:18:58;;;;;;;10.35;7.95;;;;;;;22.35;100.00;100400.02;5065159;58;1141459;-63
2022/08/20 19:24:07;;;;;;;6.95;6.28;;;;;;;22.39;100.00;100395.06;5052498;58;1143249;-64
2022/08/20 19:29:17;;;;;;;8.35;6.30;;;;;;;22.41;100.00;100388.45;5144636;55;1141515;-65
2022/08/20 19:34:26;;;;;;;7.75;6.35;;;;;;;22.35;100.00;100375.77;5216759;55;1141381;-66
2022/08/20 19:39:35;;;;;;;8.88;6.83;;;;;;;22.35;100.00;100360.94;5121782;56;1141376;-66
2022/08/20 19:44:53;;;;;;;5.05;4.65;;;;;;;22.33;100.00;100344.66;5189090;56;1141317;-64
2022/08/20 19:50:15;;;;;;;6.33;5.67;;;;;;;22.28;100.00;100331.80;5207607;56;1141102;-67
2022/08/20 19:55:34;;;;;;;7.42;6.08;;;;;;;22.15;100.00;100331.73;5149258;57;1141277;-65
2022/08/20 20:00:44;;;;;;;8.70;5.80;;;;;;;22.15;100.00;100342.51;5150057;55;1141135;-66
2022/08/20 20:05:54;;;;;;;6.53;5.92;;;;;;;22.09;100.00;100325.27;5161768;55;1141130;-65
2022/08/20 20:11:02;;;;;;;7.67;6.62;;;;;;;22.06;100.00;100321.62;5167640;55;1141088;-66
2022/08/20 20:16:08;;;;;;;6.45;5.85;;;;;;;22.15;100.00;100309.35;5196884;55;1141355;-64
2022/08/20 20:21:19;;;;;;;5.47;4.87;;;;;;;22.13;100.00;100316.28;5163318;56;1141162;-63
2022/08/20 20:26:30;;;;;;;4.85;4.45;;;;;;;22.16;100.00;100327.98;5261293;55;1141136;-66
2022/08/20 20:31:49;;;;;;;5.87;5.37;;;;;;;22.12;100.00;100321.86;5208680;56;1141341;-65
2022/08/20 20:37:08;;;;;;;6.08;5.28;;;;;;;22.04;100.00;100329.57;5199402;55;1141061;-66
2022/08/20 20:42:19;;;;;;;6.37;5.62;;;;;;;21.91;100.00;100330.81;5082699;57;1139013;-64
2022/08/20 20:47:35;;;;;;;7.60;5.90;;;;;;;21.81;100.00;100327.64;5157440;56;1138986;-65
2022/08/20 20:52:53;;;;;;;5.58;5.12;;;;;;;21.76;100.00;100323.67;5105732;57;1138889;-63
2022/08/20 20:57:59;;;;;;;6.62;4.90;;;;;;;21.72;100.00;100347.12;5187020;56;1139000;-65
2022/08/20 21:03:06;;;;;;;5.70;4.83;;;;;;;21.67;100.00;100356.33;5051778;57;1139387;-65
2022/08/20 21:08:13;;;;;;;8.10;5.58;;;;;;;21.65;100.00;100341.72;5148196;56;1139211;-66
2022/08/20 21:13:19;;;;;;;5.67;5.08;;;;;;;21.66;100.00;100342.55;5111356;57;1138864;-64
2022/08/20 21:18:26;;;;;;;5.90;4.92;;;;;;;21.69;100.00;100344.31;5174166;56;1139065;-65
2022/08/20 21:23:32;;;;;;;5.28;4.87;;;;;;;21.72;100.00;100332.33;5140074;56;1139123;-66
2022/08/20 21:28:38;;;;;;;5.60;4.55;;;;;;;21.72;100.00;100330.98;5156036;55;1139070;-66
2022/08/20 21:33:45;;;;;;;6.92;5.85;;;;;;;21.72;100.00;100325.59;5195899;56;1139202;-64
2022/08/20 21:38:51;;;;;;;5.85;5.25;;;;;;;21.68;100.00;100317.62;5056769;57;1140095;-67
2022/08/20 21:44:00;;;;;;;5.53;4.85;;;;;;;21.67;100.00;100314.61;5134359;56;1137365;-63
2022/08/20 21:49:07;;;;;;;7.30;4.85;;;;;;;21.65;100.00;100312.11;5180868;56;21666;-63
2022/08/20 21:54:13;;;;;;;5.95;4.97;;;;;;;21.57;100.00;100311.40;5161999;56;1137049;-66
2022/08/20 21:59:21;;;;;;;6.80;6.05;;;;;;;21.54;100.00;100315.85;5156044;56;1141068;-66
2022/08/20 22:04:27;;;;;;;6.97;6.37;;;;;;;21.56;100.00;100325.88;5078624;57;1141073;-64
2022/08/20 22:09:35;;;;;;;6.50;5.92;;;;;;;21.55;100.00;100325.56;5103418;56;1141129;-66
2022/08/20 22:14:41;;;;;;;6.70;6.00;;;;;;;21.52;100.00;100320.08;5157544;57;1142275;-64
2022/08/20 22:19:46;;;;;;;5.30;3.85;;;;;;;21.50;100.00;100319.44;5103082;56;1141257;-65
2022/08/20 22:24:52;;;;;;;9.70;6.92;;;;;;;21.51;100.00;100322.96;5163098;56;1141389;-65
2022/08/20 22:29:58;;;;;;;7.47;6.20;;;;;;;21.48;100.00;100319.31;5064801;57;1141125;-63
2022/08/20 22:35:06;;;;;;;8.38;7.30;;;;;;;21.32;100.00;100335.21;5077325;57;1141149;-64
2022/08/20 22:40:12;;;;;;;7.37;6.67;;;;;;;21.19;100.00;100348.51;5039407;57;1141229;-65
2022/08/20 22:45:18;;;;;;;7.15;6.37;;;;;;;21.16;100.00;100357.78;5042632;57;1141141;-65
2022/08/20 22:50:24;;;;;;;7.47;6.87;;;;;;;21.07;100.00;100368.36;5042121;57;1141187;-64
2022/08/20 22:55:30;;;;;;;8.15;7.35;;;;;;;21.01;100.00;100375.83;5058614;58;1141675;-64
2022/08/20 23:00:37;;;;;;;7.62;6.92;;;;;;;21.11;100.00;100376.85;5148523;57;1141122;-65
2022/08/20 23:05:45;;;;;;;6.45;5.85;;;;;;;21.06;100.00;100374.25;5140846;57;1141116;-64
2022/08/20 23:10:50;;;;;;;6.92;6.33;;;;;;;21.08;100.00;100366.80;5150090;56;1141548;-66